Time;durP1;ratioP1;P1;durP2;ratioP2;P2;SDS_P1;SDS_P2;PMS_P1;PMS_P2;Temp;Humidity;BMP_temperature;BMP_pressure;BME280_temperature;BME280_humidity;BME280_pressure;Samples;Min_cycle;Max_cycle;Signal;HPM_P1;HPM_P2
2022/12/30 00:01:08;;;;;;;19.23;4.93;;;;;;;;;;5065452;28;20094;-75
2022/12/30 00:03:35;;;;;;;17.95;4.18;;;;;;;;;;5063912;28;20131;-76
2022/12/30 00:06:01;;;;;;;21.85;6.00;;;;;;;;;;5060369;28;20037;-73
2022/12/30 00:11:12;;;;;;;14.40;3.85;;;;;;;;;;5057621;28;20052;-73
2022/12/30 00:33:08;;;;;;;19.65;3.95;;;;;;;;;;5064680;28;20088;-74
2022/12/30 00:35:36;;;;;;;;;;;;;;;;;;5063789;28;20472;-74
2022/12/30 00:38:02;;;;;;;22.85;4.65;;;;;;;;;;5065914;28;19978;-74
2022/12/30 00:40:28;;;;;;;17.15;4.07;;;;;;;;;;5064389;28;20052;-74
2022/12/30 00:43:10;;;;;;;18.55;4.55;;;;;;;;;;5065929;28;20052;-75
2022/12/30 00:45:40;;;;;;;20.52;5.13;;;;;;;;;;5061377;28;20044;-74
2022/12/30 00:56:21;;;;;;;19.55;4.05;;;;;;;;;;5068742;28;20060;-74
2022/12/30 00:58:47;;;;;;;22.05;4.18;;;;;;;;;;5067873;28;20072;-74
2022/12/30 01:01:13;;;;;;;19.95;4.18;;;;;;;;;;5063045;28;20079;-74
2022/12/30 01:03:39;;;;;;;19.05;4.63;;;;;;;;;;5062842;28;20045;-74
2022/12/30 01:06:09;;;;;;;15.80;3.65;;;;;;;;;;5065480;28;20048;-74
2022/12/30 01:08:35;;;;;;;12.48;4.10;;;;;;;;;;5064878;28;20365;-74
2022/12/30 01:11:05;;;;;;;20.75;5.00;;;;;;;;;;5070762;28;20058;-74
2022/12/30 01:13:31;;;;;;;24.02;4.53;;;;;;;;;;5068256;28;20053;-74
2022/12/30 01:15:57;;;;;;;20.85;3.92;;;;;;;;;;5066870;28;20082;-74
2022/12/30 01:18:23;;;;;;;22.92;4.20;;;;;;;;;;5057448;28;20052;-74
2022/12/30 01:20:49;;;;;;;22.95;4.75;;;;;;;;;;5069552;28;20119;-74
2022/12/30 01:23:15;;;;;;;20.75;4.85;;;;;;;;;;5064193;28;20136;-74
2022/12/30 01:25:41;;;;;;;22.65;4.28;;;;;;;;;;5066913;28;20036;-74
2022/12/30 01:28:07;;;;;;;23.30;4.82;;;;;;;;;;5065636;28;20109;-74
2022/12/30 01:30:33;;;;;;;19.83;5.20;;;;;;;;;;5066956;28;20047;-74
2022/12/30 01:32:59;;;;;;;30.13;5.07;;;;;;;;;;5065219;28;20408;-74
2022/12/30 01:35:25;;;;;;;17.88;4.30;;;;;;;;;;5066701;28;20045;-74
2022/12/30 01:37:51;;;;;;;24.52;5.63;;;;;;;;;;5063657;28;20192;-74
2022/12/30 01:40:17;;;;;;;28.15;4.93;;;;;;;;;;5066638;28;20048;-74
2022/12/30 01:42:53;;;;;;;19.92;4.78;;;;;;;;;;5063840;28;20048;-74
2022/12/30 01:45:26;;;;;;;24.73;5.68;;;;;;;;;;5064371;28;20127;-74
2022/12/30 01:47:58;;;;;;;31.20;5.40;;;;;;;;;;5068942;28;20044;-74
2022/12/30 01:50:27;;;;;;;21.65;4.80;;;;;;;;;;5067214;28;21428;-74
2022/12/30 01:52:56;;;;;;;19.50;4.57;;;;;;;;;;5065594;28;20185;-74
2022/12/30 01:55:26;;;;;;;24.85;4.45;;;;;;;;;;5067087;28;20032;-74
2022/12/30 01:57:53;;;;;;;18.60;5.10;;;;;;;;;;5068450;28;20174;-74
2022/12/30 02:00:20;;;;;;;18.88;4.70;;;;;;;;;;5068297;28;20040;-74
2022/12/30 02:02:46;;;;;;;22.75;4.22;;;;;;;;;;5067771;28;20072;-74
2022/12/30 02:05:12;;;;;;;20.75;4.68;;;;;;;;;;5065113;28;20044;-74
2022/12/30 02:07:58;;;;;;;19.17;4.47;;;;;;;;;;5069337;28;20484;-74
2022/12/30 02:10:25;;;;;;;20.05;4.65;;;;;;;;;;5062626;28;20460;-74
2022/12/30 02:12:51;;;;;;;22.52;4.68;;;;;;;;;;5070330;28;20045;-74
2022/12/30 02:15:17;;;;;;;23.70;4.80;;;;;;;;;;5069163;28;20075;-74
2022/12/30 02:18:02;;;;;;;28.42;4.65;;;;;;;;;;5086383;28;20221;-74
2022/12/30 02:20:31;;;;;;;21.80;4.90;;;;;;;;;;5068191;28;20068;-74
2022/12/30 02:23:27;;;;;;;24.20;5.15;;;;;;;;;;5069107;28;20050;-74
2022/12/30 02:25:53;;;;;;;19.77;4.55;;;;;;;;;;5072417;28;20040;-74
2022/12/30 02:28:38;;;;;;;25.17;4.28;;;;;;;;;;5058849;28;20499;-74
2022/12/30 02:31:03;;;;;;;21.15;5.65;;;;;;;;;;5066717;28;20040;-74
2022/12/30 02:33:33;;;;;;;16.70;4.32;;;;;;;;;;5064397;28;20502;-74
2022/12/30 02:36:16;;;;;;;20.60;5.28;;;;;;;;;;5069372;28;20040;-74
2022/12/30 02:38:42;;;;;;;17.55;4.70;;;;;;;;;;5067393;28;20159;-74
2022/12/30 02:46:55;;;;;;;18.63;4.15;;;;;;;;;;5061057;28;20048;-74
2022/12/30 02:49:21;;;;;;;16.73;4.32;;;;;;;;;;5058651;28;20064;-74
2022/12/30 02:54:32;;;;;;;19.95;3.75;;;;;;;;;;5068605;28;20041;-74
2022/12/30 02:56:58;;;;;;;19.10;4.18;;;;;;;;;;5067186;28;20047;-74
2022/12/30 03:05:25;;;;;;;20.73;4.57;;;;;;;;;;5062389;28;20048;-74
2022/12/30 03:08:05;;;;;;;16.63;3.88;;;;;;;;;;5069270;28;20044;-74
2022/12/30 03:13:36;;;;;;;15.18;3.80;;;;;;;;;;5068037;28;20049;-74
2022/12/30 03:16:06;;;;;;;19.77;4.60;;;;;;;;;;5066297;28;20044;-74
2022/12/30 03:18:33;;;;;;;22.27;5.18;;;;;;;;;;5067469;28;20087;-74
2022/12/30 03:21:03;;;;;;;19.23;4.38;;;;;;;;;;5063373;28;20060;-74
2022/12/30 03:29:05;;;;;;;19.13;4.28;;;;;;;;;;5063027;28;20462;-74
2022/12/30 03:31:31;;;;;;;19.30;4.55;;;;;;;;;;5066716;28;20480;-74
2022/12/30 03:33:57;;;;;;;20.52;5.15;;;;;;;;;;5068809;28;20048;-74
2022/12/30 03:36:26;;;;;;;15.23;3.53;;;;;;;;;;5065929;28;20037;-74
2022/12/30 03:38:54;;;;;;;18.98;3.97;;;;;;;;;;5059499;28;20056;-74
2022/12/30 03:41:21;;;;;;;14.07;4.88;;;;;;;;;;5058928;28;20041;-74
2022/12/30 03:43:48;;;;;;;18.27;4.10;;;;;;;;;;5068167;28;20450;-74
2022/12/30 03:46:14;;;;;;;17.35;4.40;;;;;;;;;;5061566;28;20040;-74
2022/12/30 03:48:40;;;;;;;20.80;4.60;;;;;;;;;;5066248;28;20044;-74
2022/12/30 03:51:06;;;;;;;24.45;4.57;;;;;;;;;;5064730;28;20052;-74
2022/12/30 03:53:32;;;;;;;21.70;4.65;;;;;;;;;;5064189;28;20102;-74
2022/12/30 03:55:58;;;;;;;20.65;4.43;;;;;;;;;;5062487;28;20040;-74
2022/12/30 03:58:24;;;;;;;24.40;5.32;;;;;;;;;;5064448;28;20110;-74
2022/12/30 04:00:51;;;;;;;26.42;6.15;;;;;;;;;;5061736;28;20392;-74
2022/12/30 04:03:17;;;;;;;25.38;6.07;;;;;;;;;;5063952;28;20431;-74
2022/12/30 04:05:43;;;;;;;24.05;6.35;;;;;;;;;;5067689;28;20040;-74
2022/12/30 04:08:09;;;;;;;20.17;6.38;;;;;;;;;;5064853;28;20056;-74
2022/12/30 04:10:35;;;;;;;21.30;7.63;;;;;;;;;;5060643;28;20037;-74
2022/12/30 04:13:01;;;;;;;23.13;6.63;;;;;;;;;;5067191;28;20048;-74
2022/12/30 04:15:27;;;;;;;21.38;5.65;;;;;;;;;;5064778;28;20045;-74
2022/12/30 04:17:53;;;;;;;28.60;5.25;;;;;;;;;;5067538;28;20048;-74
2022/12/30 04:20:19;;;;;;;18.90;5.18;;;;;;;;;;5064240;28;20040;-74
2022/12/30 04:22:45;;;;;;;23.83;5.65;;;;;;;;;;5067876;28;20041;-74
2022/12/30 04:25:11;;;;;;;14.05;4.50;;;;;;;;;;5066121;28;20072;-74
2022/12/30 04:27:37;;;;;;;24.10;5.32;;;;;;;;;;5064575;28;20052;-74
2022/12/30 04:30:07;;;;;;;12.30;4.07;;;;;;;;;;5060416;28;20106;-74
2022/12/30 04:32:33;;;;;;;16.58;5.60;;;;;;;;;;5067168;28;20399;-74
2022/12/30 04:34:59;;;;;;;23.25;5.65;;;;;;;;;;5063955;28;20053;-74
2022/12/30 04:37:25;;;;;;;20.33;5.45;;;;;;;;;;5067544;28;20683;-74
2022/12/30 04:39:51;;;;;;;21.50;5.90;;;;;;;;;;5067458;28;20048;-74
2022/12/30 04:42:17;;;;;;;16.05;5.90;;;;;;;;;;5062799;28;20085;-74
2022/12/30 04:44:43;;;;;;;19.42;5.88;;;;;;;;;;5060516;28;20040;-74
2022/12/30 04:47:09;;;;;;;18.98;6.47;;;;;;;;;;5061017;28;20435;-74
2022/12/30 04:49:35;;;;;;;20.30;7.53;;;;;;;;;;5065859;28;20097;-74
2022/12/30 04:52:03;;;;;;;16.30;8.70;;;;;;;;;;5068471;28;20045;-74
2022/12/30 04:54:30;;;;;;;22.17;9.25;;;;;;;;;;5065142;28;20076;-74
2022/12/30 04:56:56;;;;;;;21.35;9.00;;;;;;;;;;5067808;28;20059;-74
2022/12/30 04:59:22;;;;;;;20.65;8.90;;;;;;;;;;5063495;28;20575;-74
2022/12/30 05:01:48;;;;;;;18.17;9.27;;;;;;;;;;5065083;28;20041;-74
2022/12/30 05:04:14;;;;;;;19.58;9.35;;;;;;;;;;5065037;28;20044;-74
2022/12/30 05:06:40;;;;;;;22.85;9.70;;;;;;;;;;5065691;28;20047;-74
2022/12/30 05:09:06;;;;;;;24.58;11.55;;;;;;;;;;5066317;28;20036;-74
2022/12/30 05:11:32;;;;;;;20.33;12.02;;;;;;;;;;5070676;28;20495;-74
2022/12/30 05:13:58;;;;;;;15.45;9.77;;;;;;;;;;5067649;28;20067;-74
2022/12/30 05:16:24;;;;;;;22.20;10.38;;;;;;;;;;5063045;28;20066;-74
2022/12/30 05:18:50;;;;;;;22.35;11.95;;;;;;;;;;5064331;28;20093;-74
2022/12/30 05:21:16;;;;;;;23.25;11.13;;;;;;;;;;5065893;28;20041;-75
2022/12/30 05:26:27;;;;;;;27.40;11.55;;;;;;;;;;5069386;28;20049;-74
2022/12/30 05:28:53;;;;;;;26.23;13.50;;;;;;;;;;5065098;28;20052;-74
2022/12/30 05:31:19;;;;;;;24.48;14.10;;;;;;;;;;5079648;28;20043;-74
2022/12/30 05:33:45;;;;;;;25.30;13.73;;;;;;;;;;5072930;28;20044;-74
2022/12/30 05:36:21;;;;;;;23.10;13.27;;;;;;;;;;5065066;28;20106;-74
2022/12/30 05:38:47;;;;;;;19.83;12.30;;;;;;;;;;5067983;28;20466;-74
2022/12/30 05:41:13;;;;;;;26.83;12.05;;;;;;;;;;5068614;28;20578;-74
2022/12/30 05:43:39;;;;;;;24.00;12.35;;;;;;;;;;5069232;28;20044;-74
2022/12/30 05:46:05;;;;;;;23.23;10.98;;;;;;;;;;5068711;28;20396;-74
2022/12/30 05:48:34;;;;;;;23.48;12.50;;;;;;;;;;5069691;28;20488;-74
2022/12/30 05:51:00;;;;;;;25.58;12.57;;;;;;;;;;5067243;28;20149;-74
2022/12/30 05:53:26;;;;;;;23.88;12.27;;;;;;;;;;5066409;28;20056;-74
2022/12/30 05:55:52;;;;;;;19.02;10.95;;;;;;;;;;5067903;28;20053;-74
2022/12/30 05:58:19;;;;;;;24.35;11.27;;;;;;;;;;5072292;28;20067;-74
2022/12/30 06:00:45;;;;;;;28.48;11.52;;;;;;;;;;5064180;28;20044;-74
2022/12/30 06:03:11;;;;;;;19.15;10.25;;;;;;;;;;5067236;28;20052;-74
2022/12/30 06:05:37;;;;;;;27.95;10.75;;;;;;;;;;5072173;28;20044;-74
2022/12/30 06:08:03;;;;;;;20.42;9.38;;;;;;;;;;5071984;28;20048;-74
2022/12/30 06:10:29;;;;;;;28.30;9.95;;;;;;;;;;5065098;28;20131;-74
2022/12/30 06:12:55;;;;;;;22.52;10.57;;;;;;;;;;5068184;28;20048;-74
2022/12/30 06:15:21;;;;;;;22.45;9.27;;;;;;;;;;5070044;28;20044;-74
2022/12/30 06:17:47;;;;;;;15.50;7.18;;;;;;;;;;5063574;28;20037;-74
2022/12/30 06:20:16;;;;;;;13.38;7.40;;;;;;;;;;5068660;28;20059;-74
2022/12/30 06:22:42;;;;;;;18.77;6.78;;;;;;;;;;5066362;28;20040;-74
2022/12/30 06:25:08;;;;;;;12.80;5.70;;;;;;;;;;5068635;28;20044;-74
2022/12/30 06:27:34;;;;;;;15.25;6.50;;;;;;;;;;5065176;28;20049;-74
2022/12/30 06:30:00;;;;;;;15.57;5.95;;;;;;;;;;5072213;28;20476;-74
2022/12/30 06:32:26;;;;;;;13.65;5.75;;;;;;;;;;5063756;28;20053;-74
2022/12/30 06:34:52;;;;;;;17.80;6.55;;;;;;;;;;5071812;28;20047;-74
2022/12/30 06:37:18;;;;;;;13.55;5.25;;;;;;;;;;5068912;28;20056;-74
2022/12/30 06:39:44;;;;;;;12.13;5.47;;;;;;;;;;5069238;28;20052;-74
2022/12/30 06:42:10;;;;;;;10.38;5.38;;;;;;;;;;5067408;28;20043;-74
2022/12/30 06:44:36;;;;;;;14.70;4.70;;;;;;;;;;5065010;28;20044;-74
2022/12/30 06:47:02;;;;;;;16.40;5.20;;;;;;;;;;5060400;28;20484;-74
2022/12/30 06:49:28;;;;;;;18.38;5.30;;;;;;;;;;5068747;28;20037;-74
2022/12/30 06:51:54;;;;;;;11.30;4.45;;;;;;;;;;5069459;28;20055;-74
2022/12/30 06:54:20;;;;;;;14.35;4.78;;;;;;;;;;5069375;28;20036;-74
2022/12/30 06:56:46;;;;;;;17.65;5.00;;;;;;;;;;5067757;28;20488;-74
2022/12/30 06:59:12;;;;;;;15.57;5.03;;;;;;;;;;5066952;28;20050;-74
2022/12/30 07:01:38;;;;;;;15.85;6.22;;;;;;;;;;5061766;28;20044;-74
2022/12/30 07:04:04;;;;;;;13.82;4.97;;;;;;;;;;5064072;28;20439;-74
2022/12/30 07:06:31;;;;;;;15.30;5.60;;;;;;;;;;5068046;28;20044;-74
2022/12/30 07:09:09;;;;;;;16.35;5.78;;;;;;;;;;5068059;28;20040;-74
2022/12/30 07:11:35;;;;;;;16.05;5.32;;;;;;;;;;5066213;28;20048;-74
2022/12/30 07:14:01;;;;;;;13.25;5.20;;;;;;;;;;5063716;28;20374;-74
2022/12/30 07:16:27;;;;;;;11.40;5.93;;;;;;;;;;5065898;28;20045;-74
2022/12/30 07:18:53;;;;;;;15.05;6.10;;;;;;;;;;5066127;28;20089;-74
2022/12/30 07:21:19;;;;;;;14.45;5.40;;;;;;;;;;5066899;28;20036;-74
2022/12/30 07:23:46;;;;;;;16.20;5.90;;;;;;;;;;5067094;28;20051;-74
2022/12/30 07:26:12;;;;;;;15.18;6.30;;;;;;;;;;5061911;28;20520;-74
2022/12/30 07:28:38;;;;;;;16.55;6.45;;;;;;;;;;5067075;28;20209;-74
2022/12/30 07:31:04;;;;;;;12.02;6.13;;;;;;;;;;5064692;28;20467;-74
2022/12/30 07:33:30;;;;;;;15.07;5.50;;;;;;;;;;5067523;28;20044;-74
2022/12/30 07:35:56;;;;;;;16.00;6.13;;;;;;;;;;5068525;28;20128;-74
2022/12/30 07:38:22;;;;;;;14.85;5.82;;;;;;;;;;5067581;28;20151;-74
2022/12/30 07:40:48;;;;;;;11.20;5.45;;;;;;;;;;5068762;28;20040;-74
2022/12/30 07:43:14;;;;;;;11.82;5.65;;;;;;;;;;5061532;28;20091;-74
2022/12/30 07:45:40;;;;;;;15.63;5.80;;;;;;;;;;5066449;28;20032;-74
2022/12/30 07:48:06;;;;;;;15.13;5.47;;;;;;;;;;5068180;28;20049;-74
2022/12/30 07:50:32;;;;;;;12.57;5.70;;;;;;;;;;5066512;28;20045;-74
2022/12/30 07:52:59;;;;;;;15.65;6.22;;;;;;;;;;5067954;28;20405;-74
2022/12/30 07:55:31;;;;;;;14.15;5.68;;;;;;;;;;5067011;28;20103;-74
2022/12/30 07:57:57;;;;;;;11.75;5.10;;;;;;;;;;5062389;28;20040;-75
2022/12/30 08:00:23;;;;;;;13.10;4.90;;;;;;;;;;5063002;28;20072;-74
2022/12/30 08:02:49;;;;;;;11.40;4.78;;;;;;;;;;5067572;28;20082;-75
2022/12/30 08:05:15;;;;;;;12.52;4.85;;;;;;;;;;5068001;28;20059;-74
2022/12/30 08:07:42;;;;;;;18.98;5.32;;;;;;;;;;5062916;28;20124;-74
2022/12/30 08:10:08;;;;;;;14.02;5.75;;;;;;;;;;5061662;28;20470;-75
2022/12/30 08:12:35;;;;;;;15.07;4.68;;;;;;;;;;5061596;28;20040;-74
2022/12/30 08:15:01;;;;;;;16.27;5.63;;;;;;;;;;5066335;28;20083;-75
2022/12/30 08:17:28;;;;;;;11.30;4.60;;;;;;;;;;5065466;28;20049;-75
2022/12/30 08:19:54;;;;;;;14.70;5.10;;;;;;;;;;5071448;28;20052;-75
2022/12/30 08:22:20;;;;;;;14.05;5.05;;;;;;;;;;5076594;28;20037;-74
2022/12/30 08:24:46;;;;;;;15.20;5.10;;;;;;;;;;5067690;28;20483;-75
2022/12/30 08:27:12;;;;;;;14.85;5.13;;;;;;;;;;5062729;28;20354;-75
2022/12/30 08:29:38;;;;;;;16.80;5.22;;;;;;;;;;5064247;28;20045;-75
2022/12/30 08:32:04;;;;;;;15.80;4.75;;;;;;;;;;5066150;28;20142;-74
2022/12/30 08:34:30;;;;;;;13.90;4.80;;;;;;;;;;5067365;28;20094;-74
2022/12/30 08:36:56;;;;;;;18.27;4.45;;;;;;;;;;5065224;28;20040;-74
2022/12/30 08:39:22;;;;;;;12.40;5.00;;;;;;;;;;5065474;28;20056;-75
2022/12/30 08:41:48;;;;;;;15.93;4.38;;;;;;;;;;5062861;28;20907;-74
2022/12/30 08:44:14;;;;;;;15.90;5.75;;;;;;;;;;5063058;28;20036;-75
2022/12/30 08:46:40;;;;;;;12.18;5.15;;;;;;;;;;5065118;28;20052;-74
2022/12/30 08:49:07;;;;;;;13.00;3.92;;;;;;;;;;5065225;28;20052;-74
2022/12/30 08:51:33;;;;;;;12.88;4.38;;;;;;;;;;5065558;28;20063;-74
2022/12/30 08:53:59;;;;;;;9.93;4.30;;;;;;;;;;5068007;28;20040;-74
2022/12/30 08:56:31;;;;;;;17.60;4.95;;;;;;;;;;5063419;28;20455;-74
2022/12/30 08:58:57;;;;;;;14.30;3.92;;;;;;;;;;5069423;28;20377;-73
2022/12/30 09:01:25;;;;;;;13.88;4.32;;;;;;;;;;5062050;28;20052;-73
2022/12/30 09:03:51;;;;;;;13.25;4.30;;;;;;;;;;5061653;28;20480;-73
2022/12/30 09:06:19;;;;;;;9.77;3.67;;;;;;;;;;5065561;28;20036;-73
2022/12/30 09:08:45;;;;;;;12.00;4.43;;;;;;;;;;5064619;28;20086;-74
2022/12/30 09:11:13;;;;;;;12.95;3.85;;;;;;;;;;5058766;28;20055;-75
2022/12/30 09:13:39;;;;;;;11.15;4.63;;;;;;;;;;5060995;28;20036;-74
2022/12/30 09:16:06;;;;;;;13.73;4.47;;;;;;;;;;5050476;28;20048;-71
2022/12/30 09:18:33;;;;;;;10.50;4.05;;;;;;;;;;5058444;28;20450;-73
2022/12/30 09:20:59;;;;;;;12.75;4.85;;;;;;;;;;5060904;28;20041;-73
2022/12/30 09:23:25;;;;;;;13.50;5.10;;;;;;;;;;5062114;28;20052;-75
2022/12/30 09:25:51;;;;;;;17.08;4.90;;;;;;;;;;5059472;28;20738;-75
2022/12/30 09:28:17;;;;;;;12.02;4.70;;;;;;;;;;5060468;28;20083;-76
2022/12/30 09:30:43;;;;;;;12.27;4.25;;;;;;;;;;5060215;28;20092;-75
2022/12/30 09:33:09;;;;;;;16.77;4.70;;;;;;;;;;5063479;28;20052;-74
2022/12/30 09:35:35;;;;;;;14.10;4.38;;;;;;;;;;5066601;28;20040;-73
2022/12/30 09:38:01;;;;;;;11.10;4.35;;;;;;;;;;5058068;28;20052;-75
2022/12/30 09:40:48;;;;;;;13.27;4.57;;;;;;;;;;5065060;28;20041;-75
2022/12/30 09:43:21;;;;;;;8.70;4.07;;;;;;;;;;5061962;28;20131;-75
2022/12/30 09:45:47;;;;;;;10.88;4.45;;;;;;;;;;5064753;28;20561;-75
2022/12/30 09:48:18;;;;;;;10.13;4.57;;;;;;;;;;5058082;28;20252;-76
2022/12/30 09:50:46;;;;;;;15.52;4.47;;;;;;;;;;5061889;28;20047;-74
2022/12/30 09:53:21;;;;;;;11.98;4.18;;;;;;;;;;5062353;28;20056;-75
2022/12/30 09:55:55;;;;;;;8.60;4.13;;;;;;;;;;5064341;28;20040;-76
2022/12/30 09:58:27;;;;;;;11.90;4.53;;;;;;;;;;5066979;28;20503;-74
2022/12/30 10:00:56;;;;;;;12.85;4.20;;;;;;;;;;5059566;28;20058;-74
2022/12/30 10:03:27;;;;;;;10.20;4.03;;;;;;;;;;5064464;28;20135;-74
2022/12/30 10:06:02;;;;;;;9.00;4.10;;;;;;;;;;5064439;28;20049;-74
2022/12/30 10:08:47;;;;;;;9.57;4.78;;;;;;;;;;5060594;28;20055;-75
2022/12/30 10:11:32;;;;;;;11.85;4.43;;;;;;;;;;5063138;28;20075;-75
2022/12/30 10:13:58;;;;;;;9.05;3.78;;;;;;;;;;5066314;28;20476;-73
2022/12/30 10:16:33;;;;;;;13.35;4.60;;;;;;;;;;5064046;28;20068;-72
2022/12/30 10:19:14;;;;;;;8.20;4.15;;;;;;;;;;5073421;28;20053;-73
2022/12/30 10:21:40;;;;;;;7.22;3.80;;;;;;;;;;5065704;28;20044;-73
2022/12/30 10:24:27;;;;;;;9.23;4.35;;;;;;;;;;5066168;28;20040;-72
2022/12/30 10:26:55;;;;;;;10.52;3.90;;;;;;;;;;5063885;28;20139;-72
2022/12/30 10:29:23;;;;;;;7.97;3.50;;;;;;;;;;5064366;28;20094;-73
2022/12/30 10:31:51;;;;;;;8.88;4.20;;;;;;;;;;5064225;28;20059;-71
2022/12/30 10:51:41;;;;;;;10.27;3.83;;;;;;;;;;4880038;29;20181;-72
2022/12/30 10:54:09;;;;;;;9.88;3.90;;;;;;;;;;4905517;29;20396;-73
2022/12/30 10:56:35;;;;;;;8.75;4.20;;;;;;;;;;4893502;29;20168;-73
2022/12/30 10:59:06;;;;;;;8.13;3.70;;;;;;;;;;4910314;29;20059;-74
2022/12/30 11:01:35;;;;;;;10.38;4.10;;;;;;;;;;4895058;29;20056;-72
2022/12/30 11:04:02;;;;;;;6.18;3.28;;;;;;;;;;4894639;29;20072;-73
2022/12/30 11:06:32;;;;;;;6.88;3.50;;;;;;;;;;4890463;29;20132;-73
2022/12/30 11:09:14;;;;;;;5.57;2.70;;;;;;;;;;4891544;29;20213;-74
2022/12/30 11:14:44;;;;;;;7.05;2.97;;;;;;;;;;4897097;29;20053;-75
2022/12/30 11:17:16;;;;;;;5.47;3.40;;;;;;;;;;4892659;29;20143;-74
2022/12/30 11:19:43;;;;;;;8.63;3.47;;;;;;;;;;4893287;29;20044;-73
2022/12/30 11:22:10;;;;;;;10.13;3.38;;;;;;;;;;4892590;29;20076;-74
2022/12/30 11:24:39;;;;;;;8.23;3.53;;;;;;;;;;4894131;29;20049;-76
2022/12/30 11:27:05;;;;;;;5.90;3.00;;;;;;;;;;4892317;29;20131;-74
2022/12/30 11:29:34;;;;;;;4.57;3.05;;;;;;;;;;4898086;29;20086;-76
2022/12/30 11:32:08;;;;;;;7.22;3.58;;;;;;;;;;4894518;29;20513;-74
2022/12/30 11:34:35;;;;;;;9.70;3.58;;;;;;;;;;4894709;29;20052;-72
2022/12/30 11:37:20;;;;;;;7.55;3.50;;;;;;;;;;4889886;29;20052;-72
2022/12/30 11:39:46;;;;;;;5.45;3.38;;;;;;;;;;4892196;29;20044;-72
2022/12/30 11:42:29;;;;;;;5.60;2.72;;;;;;;;;;4892346;29;20099;-73
2022/12/30 11:45:13;;;;;;;4.60;3.08;;;;;;;;;;4889668;29;20786;-73
2022/12/30 11:47:44;;;;;;;6.53;3.15;;;;;;;;;;4909394;29;20172;-72
2022/12/30 11:50:15;;;;;;;8.55;3.05;;;;;;;;;;4894514;29;20071;-73
2022/12/30 11:52:41;;;;;;;8.20;3.17;;;;;;;;;;4891130;29;20044;-72
2022/12/30 11:55:18;;;;;;;4.32;2.67;;;;;;;;;;4892846;29;20040;-72
2022/12/30 11:57:47;;;;;;;6.53;3.13;;;;;;;;;;4891955;29;20108;-72
2022/12/30 12:00:16;;;;;;;6.10;2.90;;;;;;;;;;4891354;29;20056;-72
2022/12/30 12:02:47;;;;;;;8.43;3.10;;;;;;;;;;4888325;29;20139;-72
2022/12/30 12:05:22;;;;;;;4.10;2.58;;;;;;;;;;4891534;29;20385;-71
2022/12/30 12:07:50;;;;;;;7.28;2.83;;;;;;;;;;4894111;29;20048;-71
2022/12/30 12:10:19;;;;;;;7.07;2.60;;;;;;;;;;4889956;29;20107;-72
2022/12/30 12:12:49;;;;;;;6.63;3.30;;;;;;;;;;4908943;29;20044;-71
2022/12/30 12:15:15;;;;;;;4.53;2.50;;;;;;;;;;4891030;29;20111;-71
2022/12/30 12:17:52;;;;;;;8.88;3.30;;;;;;;;;;4890867;29;20393;-71
2022/12/30 12:20:20;;;;;;;6.13;3.00;;;;;;;;;;4887330;29;20056;-74
2022/12/30 12:23:22;;;;;;;6.25;2.50;;;;;;;;;;4892767;29;20036;-72
2022/12/30 12:25:57;;;;;;;6.53;2.83;;;;;;;;;;4928543;29;20043;-72
2022/12/30 12:28:24;;;;;;;5.57;3.08;;;;;;;;;;4896912;29;20056;-72
2022/12/30 12:30:50;;;;;;;7.20;3.05;;;;;;;;;;4892075;29;20028;-72
2022/12/30 12:33:21;;;;;;;5.90;2.78;;;;;;;;;;4886869;29;20144;-72
2022/12/30 12:35:54;;;;;;;6.78;3.10;;;;;;;;;;4891921;29;20055;-72
2022/12/30 12:38:29;;;;;;;5.35;3.03;;;;;;;;;;4907358;29;20056;-72
2022/12/30 12:41:07;;;;;;;4.88;2.83;;;;;;;;;;4894246;29;20133;-72
2022/12/30 12:43:51;;;;;;;7.97;2.80;;;;;;;;;;4905455;29;20072;-72
2022/12/30 12:46:36;;;;;;;6.43;2.70;;;;;;;;;;4888517;29;20551;-72
2022/12/30 12:49:12;;;;;;;6.53;2.40;;;;;;;;;;4902719;29;20512;-72
2022/12/30 12:51:56;;;;;;;6.90;2.97;;;;;;;;;;4893580;29;20068;-72
2022/12/30 12:54:31;;;;;;;7.68;2.60;;;;;;;;;;4905186;29;20049;-71
2022/12/30 12:57:04;;;;;;;6.20;2.70;;;;;;;;;;4893168;29;20052;-73
2022/12/30 12:59:39;;;;;;;5.30;2.60;;;;;;;;;;4894092;29;20058;-71
2022/12/30 13:02:14;;;;;;;3.97;2.65;;;;;;;;;;4891094;29;20041;-71
2022/12/30 13:04:46;;;;;;;7.57;2.78;;;;;;;;;;4888755;29;20056;-71
2022/12/30 13:07:30;;;;;;;6.57;2.97;;;;;;;;;;4891295;29;20040;-71
2022/12/30 13:10:12;;;;;;;5.72;3.17;;;;;;;;;;4907522;29;20484;-71
2022/12/30 13:12:52;;;;;;;6.78;2.90;;;;;;;;;;4890693;29;20057;-72
2022/12/30 13:15:21;;;;;;;5.55;3.00;;;;;;;;;;4907452;29;20054;-74
2022/12/30 13:17:49;;;;;;;6.15;2.90;;;;;;;;;;4890314;29;20055;-72
2022/12/30 13:20:21;;;;;;;9.20;3.25;;;;;;;;;;4902041;29;20295;-72
2022/12/30 13:22:53;;;;;;;7.05;2.88;;;;;;;;;;4889904;29;20045;-73
2022/12/30 13:25:29;;;;;;;7.30;2.78;;;;;;;;;;4892536;29;20060;-74
2022/12/30 13:27:55;;;;;;;4.78;2.50;;;;;;;;;;4894282;29;20045;-74
2022/12/30 13:30:22;;;;;;;7.72;3.20;;;;;;;;;;4903348;29;20047;-76
2022/12/30 13:32:57;;;;;;;4.88;2.72;;;;;;;;;;4893307;29;20377;-74
2022/12/30 13:35:23;;;;;;;8.25;3.70;;;;;;;;;;4889434;29;20044;-72
2022/12/30 13:37:57;;;;;;;5.60;2.80;;;;;;;;;;4892736;29;20125;-73
2022/12/30 13:40:25;;;;;;;5.80;2.67;;;;;;;;;;4906484;29;20160;-72
2022/12/30 13:43:10;;;;;;;10.40;2.88;;;;;;;;;;4895411;29;20072;-73
2022/12/30 13:45:53;;;;;;;6.65;2.53;;;;;;;;;;4894005;29;20048;-72
2022/12/30 13:48:20;;;;;;;5.07;2.53;;;;;;;;;;4894060;29;20054;-73
2022/12/30 13:50:47;;;;;;;5.13;2.47;;;;;;;;;;4897831;29;20060;-73
2022/12/30 13:53:32;;;;;;;6.25;2.75;;;;;;;;;;4888988;29;20052;-73
2022/12/30 13:55:58;;;;;;;8.93;2.38;;;;;;;;;;4899752;29;20474;-73
2022/12/30 13:58:27;;;;;;;5.07;2.40;;;;;;;;;;4908767;29;20135;-73
2022/12/30 14:01:12;;;;;;;8.45;3.28;;;;;;;;;;4893528;29;20064;-73
2022/12/30 14:03:38;;;;;;;8.32;2.65;;;;;;;;;;4896877;29;20044;-73
2022/12/30 14:06:24;;;;;;;4.40;2.40;;;;;;;;;;4895443;29;20087;-73
2022/12/30 14:09:10;;;;;;;8.48;3.20;;;;;;;;;;4897468;29;20044;-74
2022/12/30 14:11:36;;;;;;;6.22;3.05;;;;;;;;;;4897211;29;20105;-73
2022/12/30 14:14:06;;;;;;;7.35;2.40;;;;;;;;;;4896946;29;20040;-74
2022/12/30 14:16:44;;;;;;;7.80;3.30;;;;;;;;;;4895915;29;20044;-73
2022/12/30 14:19:12;;;;;;;7.75;2.40;;;;;;;;;;4910244;29;20132;-74
2022/12/30 14:21:52;;;;;;;10.30;3.05;;;;;;;;;;4895629;29;20099;-74
2022/12/30 14:24:37;;;;;;;5.50;2.47;;;;;;;;;;4909652;29;20388;-74
2022/12/30 14:27:03;;;;;;;4.22;2.10;;;;;;;;;;4894183;29;20044;-73
2022/12/30 14:29:30;;;;;;;8.38;2.78;;;;;;;;;;4893958;29;20523;-74
2022/12/30 14:32:06;;;;;;;7.55;2.58;;;;;;;;;;4908643;29;20068;-74
2022/12/30 14:34:37;;;;;;;5.32;2.38;;;;;;;;;;4892182;29;20435;-73
2022/12/30 14:37:03;;;;;;;4.40;2.33;;;;;;;;;;4893525;29;20056;-73
2022/12/30 14:39:29;;;;;;;6.03;2.55;;;;;;;;;;4894223;29;20124;-75
2022/12/30 14:41:56;;;;;;;5.68;2.53;;;;;;;;;;4896954;29;20044;-75
2022/12/30 14:44:24;;;;;;;6.53;2.47;;;;;;;;;;4893721;29;20040;-74
2022/12/30 14:46:54;;;;;;;6.20;3.33;;;;;;;;;;4894428;29;20048;-74
2022/12/30 14:49:23;;;;;;;5.70;2.55;;;;;;;;;;4893643;29;20519;-74
2022/12/30 14:51:59;;;;;;;6.97;2.42;;;;;;;;;;4896022;29;20543;-73
2022/12/30 14:57:33;;;;;;;9.27;2.95;;;;;;;;;;5789329;23;20011;-73
2022/12/30 14:59:59;;;;;;;6.80;2.50;;;;;;;;;;4899873;29;20060;-74
2022/12/30 15:02:34;;;;;;;4.45;2.45;;;;;;;;;;4906909;29;20523;-74
2022/12/30 15:05:19;;;;;;;4.97;2.45;;;;;;;;;;4906409;29;20143;-76
2022/12/30 15:10:23;;;;;;;7.00;2.72;;;;;;;;;;5061093;23;20087;-85
2022/12/30 15:12:50;;;;;;;5.97;2.50;;;;;;;;;;4873461;29;20049;-83
2022/12/30 15:15:20;;;;;;;6.15;3.17;;;;;;;;;;4878010;29;20044;-86
2022/12/30 15:17:46;;;;;;;5.78;3.00;;;;;;;;;;4870444;29;20507;-83
2022/12/30 15:20:25;;;;;;;5.90;2.92;;;;;;;;;;4874037;29;20048;-87
2022/12/30 15:22:51;;;;;;;6.70;3.15;;;;;;;;;;4871550;29;20041;-87
2022/12/30 15:25:18;;;;;;;3.00;2.70;;;;;;;;;;4872839;29;20049;-83
2022/12/30 15:27:52;;;;;;;6.85;3.03;;;;;;;;;;4873168;29;20395;-83
2022/12/30 15:35:33;;;;;;;3.67;2.78;;;;;;;;;;4943776;23;20065;-77
2022/12/30 15:38:01;;;;;;;9.15;3.95;;;;;;;;;;4889618;29;20060;-77
2022/12/30 15:40:28;;;;;;;5.13;3.20;;;;;;;;;;4887999;29;20056;-77
2022/12/30 15:43:13;;;;;;;5.15;3.00;;;;;;;;;;4892944;29;20068;-77
2022/12/30 15:45:57;;;;;;;3.08;2.53;;;;;;;;;;4889717;29;20056;-76
2022/12/30 15:48:32;;;;;;;3.58;2.55;;;;;;;;;;4889118;29;20053;-77
2022/12/30 15:51:01;;;;;;;7.15;3.20;;;;;;;;;;4887507;29;20051;-71
2022/12/30 15:53:31;;;;;;;4.95;3.50;;;;;;;;;;4887617;29;20249;-71
2022/12/30 15:55:58;;;;;;;5.15;3.35;;;;;;;;;;4892329;29;20049;-71
2022/12/30 15:58:37;;;;;;;3.45;3.15;;;;;;;;;;4889289;29;20065;-71
2022/12/30 16:01:07;;;;;;;3.13;2.60;;;;;;;;;;4889371;29;20493;-71
2022/12/30 16:03:33;;;;;;;3.75;3.05;;;;;;;;;;4891187;29;20072;-71
2022/12/30 16:06:00;;;;;;;4.63;3.10;;;;;;;;;;4890217;29;20127;-71
2022/12/30 16:08:27;;;;;;;2.85;2.63;;;;;;;;;;4890870;29;21442;-70
2022/12/30 16:11:00;;;;;;;5.68;3.03;;;;;;;;;;4884601;29;20049;-71
2022/12/30 16:13:29;;;;;;;3.60;2.65;;;;;;;;;;4894038;29;20056;-71